sensor_id;sensor_type;location;lat;lon;timestamp;P1;durP1;ratioP1;P2;durP2;ratioP2
5841;SDS011;2947;52.276;9.946;2024-01-15T00:00:24;11.03;;;5.90;;
5841;SDS011;2947;52.276;9.946;2024-01-15T00:02:49;15.30;;;5.80;;
5841;SDS011;2947;52.276;9.946;2024-01-15T00:05:17;14.27;;;6.00;;
5841;SDS011;2947;52.276;9.946;2024-01-15T00:07:45;11.03;;;5.63;;
5841;SDS011;2947;52.276;9.946;2024-01-15T00:10:10;9.77;;;4.93;;
5841;SDS011;2947;52.276;9.946;2024-01-15T00:12:36;11.30;;;6.03;;
5841;SDS011;2947;52.276;9.946;2024-01-15T00:15:02;12.77;;;6.03;;
5841;SDS011;2947;52.276;9.946;2024-01-15T00:17:29;9.83;;;6.03;;
5841;SDS011;2947;52.276;9.946;2024-01-15T00:19:55;11.17;;;5.10;;
5841;SDS011;2947;52.276;9.946;2024-01-15T00:22:21;9.53;;;5.20;;
5841;SDS011;2947;52.276;9.946;2024-01-15T00:24:48;10.40;;;6.07;;
5841;SDS011;2947;52.276;9.946;2024-01-15T00:27:14;11.53;;;5.43;;
5841;SDS011;2947;52.276;9.946;2024-01-15T00:29:39;9.13;;;4.40;;
5841;SDS011;2947;52.276;9.946;2024-01-15T00:32:05;10.87;;;4.90;;
5841;SDS011;2947;52.276;9.946;2024-01-15T00:34:31;9.90;;;4.40;;
5841;SDS011;2947;52.276;9.946;2024-01-15T00:36:56;6.83;;;3.47;;
5841;SDS011;2947;52.276;9.946;2024-01-15T00:39:22;8.30;;;3.70;;
5841;SDS011;2947;52.276;9.946;2024-01-15T00:41:48;8.70;;;4.00;;
5841;SDS011;2947;52.276;9.946;2024-01-15T00:44:14;9.90;;;4.53;;
5841;SDS011;2947;52.276;9.946;2024-01-15T00:46:42;7.23;;;4.63;;
5841;SDS011;2947;52.276;9.946;2024-01-15T00:49:09;11.70;;;4.53;;
5841;SDS011;2947;52.276;9.946;2024-01-15T00:51:36;8.67;;;3.80;;
5841;SDS011;2947;52.276;9.946;2024-01-15T00:54:02;9.80;;;4.80;;
5841;SDS011;2947;52.276;9.946;2024-01-15T00:56:29;8.40;;;4.43;;
5841;SDS011;2947;52.276;9.946;2024-01-15T00:58:56;10.83;;;4.60;;
5841;SDS011;2947;52.276;9.946;2024-01-15T01:01:22;8.93;;;4.50;;
5841;SDS011;2947;52.276;9.946;2024-01-15T01:03:47;8.60;;;4.17;;
5841;SDS011;2947;52.276;9.946;2024-01-15T01:06:13;6.60;;;3.50;;
5841;SDS011;2947;52.276;9.946;2024-01-15T01:08:39;9.30;;;4.03;;
5841;SDS011;2947;52.276;9.946;2024-01-15T01:11:05;7.97;;;3.67;;
5841;SDS011;2947;52.276;9.946;2024-01-15T01:13:32;7.13;;;4.30;;
5841;SDS011;2947;52.276;9.946;2024-01-15T01:15:58;10.90;;;3.43;;
5841;SDS011;2947;52.276;9.946;2024-01-15T01:18:23;6.53;;;3.80;;
5841;SDS011;2947;52.276;9.946;2024-01-15T01:20:49;8.63;;;3.60;;
5841;SDS011;2947;52.276;9.946;2024-01-15T01:23:16;7.93;;;3.70;;
5841;SDS011;2947;52.276;9.946;2024-01-15T01:25:42;5.37;;;2.77;;
5841;SDS011;2947;52.276;9.946;2024-01-15T01:28:07;9.50;;;3.17;;
5841;SDS011;2947;52.276;9.946;2024-01-15T01:30:34;14.33;;;3.67;;
5841;SDS011;2947;52.276;9.946;2024-01-15T01:33:00;12.70;;;3.60;;
5841;SDS011;2947;52.276;9.946;2024-01-15T01:35:26;11.30;;;4.17;;
5841;SDS011;2947;52.276;9.946;2024-01-15T01:37:51;7.00;;;3.47;;
5841;SDS011;2947;52.276;9.946;2024-01-15T01:40:17;11.17;;;3.70;;
5841;SDS011;2947;52.276;9.946;2024-01-15T01:42:43;13.10;;;3.80;;
5841;SDS011;2947;52.276;9.946;2024-01-15T01:45:10;9.60;;;3.27;;
5841;SDS011;2947;52.276;9.946;2024-01-15T01:47:38;11.67;;;3.20;;
5841;SDS011;2947;52.276;9.946;2024-01-15T01:50:06;10.80;;;3.20;;
5841;SDS011;2947;52.276;9.946;2024-01-15T01:52:32;10.13;;;3.80;;
5841;SDS011;2947;52.276;9.946;2024-01-15T01:54:59;8.03;;;2.63;;
5841;SDS011;2947;52.276;9.946;2024-01-15T01:57:27;7.60;;;2.77;;
5841;SDS011;2947;52.276;9.946;2024-01-15T01:59:53;16.73;;;4.23;;
5841;SDS011;2947;52.276;9.946;2024-01-15T02:02:20;7.90;;;2.00;;
5841;SDS011;2947;52.276;9.946;2024-01-15T02:04:48;7.40;;;2.43;;
5841;SDS011;2947;52.276;9.946;2024-01-15T02:07:15;6.60;;;1.73;;
5841;SDS011;2947;52.276;9.946;2024-01-15T02:09:43;7.60;;;2.43;;
5841;SDS011;2947;52.276;9.946;2024-01-15T02:12:10;15.47;;;3.40;;
5841;SDS011;2947;52.276;9.946;2024-01-15T02:14:36;12.03;;;3.27;;
5841;SDS011;2947;52.276;9.946;2024-01-15T02:17:02;18.80;;;3.00;;
5841;SDS011;2947;52.276;9.946;2024-01-15T02:19:27;12.97;;;2.80;;
5841;SDS011;2947;52.276;9.946;2024-01-15T02:21:55;11.70;;;2.83;;
5841;SDS011;2947;52.276;9.946;2024-01-15T02:24:20;7.73;;;2.47;;
5841;SDS011;2947;52.276;9.946;2024-01-15T02:26:46;16.63;;;3.13;;
5841;SDS011;2947;52.276;9.946;2024-01-15T02:29:12;7.40;;;2.40;;
5841;SDS011;2947;52.276;9.946;2024-01-15T02:31:44;13.10;;;3.13;;
5841;SDS011;2947;52.276;9.946;2024-01-15T02:34:10;11.23;;;2.30;;
5841;SDS011;2947;52.276;9.946;2024-01-15T02:36:39;6.00;;;2.40;;
5841;SDS011;2947;52.276;9.946;2024-01-15T02:39:04;12.10;;;3.30;;
5841;SDS011;2947;52.276;9.946;2024-01-15T02:41:30;12.20;;;2.27;;
5841;SDS011;2947;52.276;9.946;2024-01-15T02:43:56;4.20;;;1.97;;
5841;SDS011;2947;52.276;9.946;2024-01-15T02:46:22;9.60;;;2.13;;
5841;SDS011;2947;52.276;9.946;2024-01-15T02:48:47;14.33;;;2.33;;
5841;SDS011;2947;52.276;9.946;2024-01-15T02:51:13;15.10;;;2.67;;
5841;SDS011;2947;52.276;9.946;2024-01-15T02:53:39;9.87;;;2.00;;
5841;SDS011;2947;52.276;9.946;2024-01-15T02:56:04;8.00;;;1.83;;
5841;SDS011;2947;52.276;9.946;2024-01-15T02:58:32;6.30;;;1.70;;
5841;SDS011;2947;52.276;9.946;2024-01-15T03:00:57;17.87;;;2.10;;
5841;SDS011;2947;52.276;9.946;2024-01-15T03:03:23;5.60;;;1.93;;
5841;SDS011;2947;52.276;9.946;2024-01-15T03:05:49;5.60;;;2.13;;
5841;SDS011;2947;52.276;9.946;2024-01-15T03:08:15;4.30;;;1.67;;
5841;SDS011;2947;52.276;9.946;2024-01-15T03:10:41;4.80;;;1.80;;
5841;SDS011;2947;52.276;9.946;2024-01-15T03:13:06;5.47;;;1.53;;
5841;SDS011;2947;52.276;9.946;2024-01-15T03:15:32;12.43;;;3.17;;
5841;SDS011;2947;52.276;9.946;2024-01-15T03:17:57;6.90;;;1.47;;
5841;SDS011;2947;52.276;9.946;2024-01-15T03:20:23;6.67;;;2.07;;
5841;SDS011;2947;52.276;9.946;2024-01-15T03:22:49;10.13;;;2.07;;
5841;SDS011;2947;52.276;9.946;2024-01-15T03:25:15;6.37;;;1.60;;
5841;SDS011;2947;52.276;9.946;2024-01-15T03:27:40;6.37;;;1.47;;
5841;SDS011;2947;52.276;9.946;2024-01-15T03:30:06;6.53;;;1.70;;
5841;SDS011;2947;52.276;9.946;2024-01-15T03:32:33;11.23;;;1.50;;
5841;SDS011;2947;52.276;9.946;2024-01-15T03:34:58;7.57;;;1.90;;
5841;SDS011;2947;52.276;9.946;2024-01-15T03:37:24;11.10;;;1.60;;
5841;SDS011;2947;52.276;9.946;2024-01-15T03:39:51;7.07;;;1.37;;
5841;SDS011;2947;52.276;9.946;2024-01-15T03:42:17;10.90;;;1.50;;
5841;SDS011;2947;52.276;9.946;2024-01-15T03:44:45;11.63;;;2.00;;
5841;SDS011;2947;52.276;9.946;2024-01-15T03:47:11;7.47;;;1.53;;
5841;SDS011;2947;52.276;9.946;2024-01-15T03:49:37;6.50;;;1.77;;
5841;SDS011;2947;52.276;9.946;2024-01-15T03:52:02;7.17;;;1.37;;
5841;SDS011;2947;52.276;9.946;2024-01-15T03:54:29;8.30;;;1.50;;
5841;SDS011;2947;52.276;9.946;2024-01-15T03:56:55;8.53;;;1.40;;
5841;SDS011;2947;52.276;9.946;2024-01-15T03:59:21;8.07;;;1.53;;
5841;SDS011;2947;52.276;9.946;2024-01-15T04:01:48;8.98;;;1.90;;
5841;SDS011;2947;52.276;9.946;2024-01-15T04:04:16;7.17;;;1.60;;
5841;SDS011;2947;52.276;9.946;2024-01-15T04:06:42;14.57;;;3.10;;
5841;SDS011;2947;52.276;9.946;2024-01-15T04:09:08;10.53;;;1.67;;
5841;SDS011;2947;52.276;9.946;2024-01-15T04:11:33;18.33;;;2.10;;
5841;SDS011;2947;52.276;9.946;2024-01-15T04:13:59;6.37;;;1.70;;
5841;SDS011;2947;52.276;9.946;2024-01-15T04:16:25;12.23;;;2.83;;
5841;SDS011;2947;52.276;9.946;2024-01-15T04:18:51;5.17;;;1.13;;
5841;SDS011;2947;52.276;9.946;2024-01-15T04:21:19;13.97;;;1.80;;
5841;SDS011;2947;52.276;9.946;2024-01-15T04:23:45;7.47;;;1.67;;
5841;SDS011;2947;52.276;9.946;2024-01-15T04:26:11;6.77;;;1.57;;
5841;SDS011;2947;52.276;9.946;2024-01-15T04:28:36;10.20;;;1.67;;
5841;SDS011;2947;52.276;9.946;2024-01-15T04:31:02;7.43;;;1.93;;
5841;SDS011;2947;52.276;9.946;2024-01-15T04:33:28;9.23;;;1.50;;
5841;SDS011;2947;52.276;9.946;2024-01-15T04:35:53;12.97;;;2.40;;
5841;SDS011;2947;52.276;9.946;2024-01-15T04:38:19;8.03;;;1.27;;
5841;SDS011;2947;52.276;9.946;2024-01-15T04:40:50;9.17;;;1.60;;
5841;SDS011;2947;52.276;9.946;2024-01-15T04:43:16;8.87;;;1.63;;
5841;SDS011;2947;52.276;9.946;2024-01-15T04:45:42;8.90;;;2.50;;
5841;SDS011;2947;52.276;9.946;2024-01-15T04:48:08;10.33;;;1.87;;
5841;SDS011;2947;52.276;9.946;2024-01-15T04:50:34;4.60;;;1.23;;
5841;SDS011;2947;52.276;9.946;2024-01-15T04:52:59;7.73;;;1.47;;
5841;SDS011;2947;52.276;9.946;2024-01-15T04:55:25;3.63;;;1.30;;
5841;SDS011;2947;52.276;9.946;2024-01-15T04:57:51;10.67;;;1.70;;
5841;SDS011;2947;52.276;9.946;2024-01-15T05:00:17;6.87;;;1.57;;
5841;SDS011;2947;52.276;9.946;2024-01-15T05:02:46;5.77;;;1.67;;
5841;SDS011;2947;52.276;9.946;2024-01-15T05:05:12;3.73;;;1.80;;
5841;SDS011;2947;52.276;9.946;2024-01-15T05:07:39;9.83;;;1.40;;
5841;SDS011;2947;52.276;9.946;2024-01-15T05:10:05;8.97;;;2.20;;
5841;SDS011;2947;52.276;9.946;2024-01-15T05:12:32;5.00;;;1.57;;
5841;SDS011;2947;52.276;9.946;2024-01-15T05:14:58;7.73;;;1.70;;
5841;SDS011;2947;52.276;9.946;2024-01-15T05:17:24;6.83;;;1.40;;
5841;SDS011;2947;52.276;9.946;2024-01-15T05:19:50;17.07;;;1.70;;
5841;SDS011;2947;52.276;9.946;2024-01-15T05:22:16;4.00;;;1.30;;
5841;SDS011;2947;52.276;9.946;2024-01-15T05:24:41;10.07;;;1.73;;
5841;SDS011;2947;52.276;9.946;2024-01-15T05:27:07;9.63;;;1.53;;
5841;SDS011;2947;52.276;9.946;2024-01-15T05:29:33;5.67;;;1.70;;
5841;SDS011;2947;52.276;9.946;2024-01-15T05:31:59;6.37;;;1.50;;
5841;SDS011;2947;52.276;9.946;2024-01-15T05:34:25;9.13;;;1.63;;
5841;SDS011;2947;52.276;9.946;2024-01-15T05:36:50;8.40;;;1.90;;
5841;SDS011;2947;52.276;9.946;2024-01-15T05:39:16;10.30;;;1.57;;
5841;SDS011;2947;52.276;9.946;2024-01-15T05:41:42;8.53;;;1.90;;
5841;SDS011;2947;52.276;9.946;2024-01-15T05:44:08;3.10;;;1.37;;
5841;SDS011;2947;52.276;9.946;2024-01-15T05:46:35;5.70;;;1.80;;
5841;SDS011;2947;52.276;9.946;2024-01-15T05:49:00;3.90;;;1.50;;
5841;SDS011;2947;52.276;9.946;2024-01-15T05:51:26;17.77;;;1.97;;
5841;SDS011;2947;52.276;9.946;2024-01-15T05:53:52;5.10;;;1.20;;
5841;SDS011;2947;52.276;9.946;2024-01-15T05:56:17;4.60;;;1.60;;
5841;SDS011;2947;52.276;9.946;2024-01-15T05:58:45;9.23;;;2.37;;
5841;SDS011;2947;52.276;9.946;2024-01-15T06:01:10;4.40;;;1.80;;
5841;SDS011;2947;52.276;9.946;2024-01-15T06:03:36;7.93;;;1.40;;
5841;SDS011;2947;52.276;9.946;2024-01-15T06:06:02;6.93;;;1.63;;
5841;SDS011;2947;52.276;9.946;2024-01-15T06:08:28;7.20;;;1.77;;
5841;SDS011;2947;52.276;9.946;2024-01-15T06:10:55;7.73;;;1.50;;
5841;SDS011;2947;52.276;9.946;2024-01-15T06:13:21;6.23;;;1.90;;
5841;SDS011;2947;52.276;9.946;2024-01-15T06:15:47;6.93;;;1.60;;
5841;SDS011;2947;52.276;9.946;2024-01-15T06:18:13;3.67;;;1.60;;
5841;SDS011;2947;52.276;9.946;2024-01-15T06:20:38;6.50;;;1.70;;
5841;SDS011;2947;52.276;9.946;2024-01-15T06:23:04;5.40;;;1.10;;
5841;SDS011;2947;52.276;9.946;2024-01-15T06:25:30;6.03;;;1.73;;
5841;SDS011;2947;52.276;9.946;2024-01-15T06:27:56;10.17;;;1.60;;
5841;SDS011;2947;52.276;9.946;2024-01-15T06:30:21;5.70;;;1.73;;
5841;SDS011;2947;52.276;9.946;2024-01-15T06:32:47;5.07;;;1.77;;
5841;SDS011;2947;52.276;9.946;2024-01-15T06:35:13;7.90;;;1.97;;
5841;SDS011;2947;52.276;9.946;2024-01-15T06:37:40;13.83;;;2.87;;
5841;SDS011;2947;52.276;9.946;2024-01-15T06:40:06;9.80;;;1.90;;
5841;SDS011;2947;52.276;9.946;2024-01-15T06:42:33;8.23;;;2.20;;
5841;SDS011;2947;52.276;9.946;2024-01-15T06:44:58;9.13;;;2.30;;
5841;SDS011;2947;52.276;9.946;2024-01-15T06:47:24;6.13;;;2.00;;
5841;SDS011;2947;52.276;9.946;2024-01-15T06:49:50;6.60;;;2.17;;
5841;SDS011;2947;52.276;9.946;2024-01-15T06:52:17;4.63;;;2.13;;
5841;SDS011;2947;52.276;9.946;2024-01-15T06:54:42;7.87;;;2.17;;
5841;SDS011;2947;52.276;9.946;2024-01-15T06:57:08;6.97;;;2.07;;
5841;SDS011;2947;52.276;9.946;2024-01-15T06:59:34;9.60;;;2.53;;
5841;SDS011;2947;52.276;9.946;2024-01-15T07:02:03;9.27;;;2.07;;
5841;SDS011;2947;52.276;9.946;2024-01-15T07:04:29;4.97;;;1.93;;
5841;SDS011;2947;52.276;9.946;2024-01-15T07:06:55;3.17;;;1.87;;
5841;SDS011;2947;52.276;9.946;2024-01-15T07:09:20;8.10;;;2.43;;
5841;SDS011;2947;52.276;9.946;2024-01-15T07:11:47;12.33;;;2.40;;
5841;SDS011;2947;52.276;9.946;2024-01-15T07:14:13;8.63;;;1.87;;
5841;SDS011;2947;52.276;9.946;2024-01-15T07:16:39;10.50;;;2.47;;
5841;SDS011;2947;52.276;9.946;2024-01-15T07:19:05;7.07;;;2.17;;
5841;SDS011;2947;52.276;9.946;2024-01-15T07:21:31;7.30;;;2.00;;
5841;SDS011;2947;52.276;9.946;2024-01-15T07:23:57;8.07;;;3.00;;
5841;SDS011;2947;52.276;9.946;2024-01-15T07:26:23;9.60;;;2.10;;
5841;SDS011;2947;52.276;9.946;2024-01-15T07:28:48;11.93;;;2.80;;
5841;SDS011;2947;52.276;9.946;2024-01-15T07:31:17;6.93;;;2.10;;
5841;SDS011;2947;52.276;9.946;2024-01-15T07:33:44;6.73;;;1.90;;
5841;SDS011;2947;52.276;9.946;2024-01-15T07:36:09;6.93;;;2.50;;
5841;SDS011;2947;52.276;9.946;2024-01-15T07:38:36;6.60;;;2.10;;
5841;SDS011;2947;52.276;9.946;2024-01-15T07:41:02;6.83;;;1.97;;
5841;SDS011;2947;52.276;9.946;2024-01-15T07:43:28;7.07;;;1.73;;
5841;SDS011;2947;52.276;9.946;2024-01-15T07:45:54;11.10;;;2.53;;
5841;SDS011;2947;52.276;9.946;2024-01-15T07:48:20;9.10;;;1.80;;
5841;SDS011;2947;52.276;9.946;2024-01-15T07:50:46;8.10;;;1.73;;
5841;SDS011;2947;52.276;9.946;2024-01-15T07:53:12;8.90;;;2.30;;
5841;SDS011;2947;52.276;9.946;2024-01-15T07:55:38;6.53;;;1.77;;
5841;SDS011;2947;52.276;9.946;2024-01-15T07:58:03;9.73;;;1.53;;
5841;SDS011;2947;52.276;9.946;2024-01-15T08:00:29;6.13;;;1.63;;
5841;SDS011;2947;52.276;9.946;2024-01-15T08:02:55;5.00;;;1.60;;
5841;SDS011;2947;52.276;9.946;2024-01-15T08:05:20;4.43;;;2.00;;
5841;SDS011;2947;52.276;9.946;2024-01-15T08:07:47;3.60;;;1.40;;
5841;SDS011;2947;52.276;9.946;2024-01-15T08:10:13;6.23;;;2.07;;
5841;SDS011;2947;52.276;9.946;2024-01-15T08:12:39;4.30;;;1.53;;
5841;SDS011;2947;52.276;9.946;2024-01-15T08:15:04;9.13;;;2.10;;
5841;SDS011;2947;52.276;9.946;2024-01-15T08:17:30;7.87;;;2.00;;
5841;SDS011;2947;52.276;9.946;2024-01-15T08:19:57;6.60;;;1.93;;
5841;SDS011;2947;52.276;9.946;2024-01-15T08:22:24;5.53;;;1.77;;
5841;SDS011;2947;52.276;9.946;2024-01-15T08:24:50;8.50;;;2.73;;
5841;SDS011;2947;52.276;9.946;2024-01-15T08:27:16;4.67;;;1.70;;
5841;SDS011;2947;52.276;9.946;2024-01-15T08:29:42;6.60;;;1.93;;
5841;SDS011;2947;52.276;9.946;2024-01-15T08:32:07;3.40;;;1.57;;
5841;SDS011;2947;52.276;9.946;2024-01-15T08:34:38;4.37;;;1.50;;
5841;SDS011;2947;52.276;9.946;2024-01-15T08:37:04;5.77;;;1.83;;
5841;SDS011;2947;52.276;9.946;2024-01-15T08:39:30;5.97;;;1.87;;
5841;SDS011;2947;52.276;9.946;2024-01-15T08:41:56;3.90;;;2.03;;
5841;SDS011;2947;52.276;9.946;2024-01-15T08:44:22;4.47;;;1.60;;
5841;SDS011;2947;52.276;9.946;2024-01-15T08:46:49;4.40;;;1.80;;
5841;SDS011;2947;52.276;9.946;2024-01-15T08:49:14;5.50;;;1.67;;
5841;SDS011;2947;52.276;9.946;2024-01-15T08:51:40;5.23;;;1.40;;
5841;SDS011;2947;52.276;9.946;2024-01-15T08:54:06;8.73;;;1.63;;
5841;SDS011;2947;52.276;9.946;2024-01-15T08:56:33;6.83;;;1.53;;
5841;SDS011;2947;52.276;9.946;2024-01-15T08:58:59;9.67;;;1.43;;
5841;SDS011;2947;52.276;9.946;2024-01-15T09:01:25;7.60;;;1.60;;
5841;SDS011;2947;52.276;9.946;2024-01-15T09:03:51;4.10;;;1.77;;
5841;SDS011;2947;52.276;9.946;2024-01-15T09:06:16;4.67;;;1.20;;
5841;SDS011;2947;52.276;9.946;2024-01-15T09:08:45;11.13;;;1.40;;
5841;SDS011;2947;52.276;9.946;2024-01-15T09:11:11;4.20;;;1.27;;
5841;SDS011;2947;52.276;9.946;2024-01-15T09:13:37;9.97;;;1.33;;
5841;SDS011;2947;52.276;9.946;2024-01-15T09:16:03;3.63;;;1.43;;
5841;SDS011;2947;52.276;9.946;2024-01-15T09:18:29;4.90;;;1.70;;
5841;SDS011;2947;52.276;9.946;2024-01-15T09:20:55;2.27;;;0.97;;
5841;SDS011;2947;52.276;9.946;2024-01-15T09:23:21;8.53;;;2.27;;
5841;SDS011;2947;52.276;9.946;2024-01-15T09:25:49;4.33;;;1.30;;
5841;SDS011;2947;52.276;9.946;2024-01-15T09:28:17;11.43;;;1.63;;
5841;SDS011;2947;52.276;9.946;2024-01-15T09:30:43;6.73;;;1.47;;
5841;SDS011;2947;52.276;9.946;2024-01-15T09:33:10;7.73;;;1.40;;
5841;SDS011;2947;52.276;9.946;2024-01-15T09:35:36;10.33;;;1.70;;
5841;SDS011;2947;52.276;9.946;2024-01-15T09:38:02;6.23;;;1.87;;
5841;SDS011;2947;52.276;9.946;2024-01-15T09:40:29;7.00;;;1.60;;
5841;SDS011;2947;52.276;9.946;2024-01-15T09:42:59;7.90;;;2.10;;
5841;SDS011;2947;52.276;9.946;2024-01-15T09:45:26;5.63;;;1.90;;
5841;SDS011;2947;52.276;9.946;2024-01-15T09:47:53;9.03;;;1.80;;
5841;SDS011;2947;52.276;9.946;2024-01-15T09:50:18;14.00;;;1.83;;
5841;SDS011;2947;52.276;9.946;2024-01-15T09:52:45;4.23;;;1.67;;
5841;SDS011;2947;52.276;9.946;2024-01-15T09:55:11;12.50;;;2.27;;
5841;SDS011;2947;52.276;9.946;2024-01-15T09:57:38;9.03;;;2.40;;
5841;SDS011;2947;52.276;9.946;2024-01-15T10:00:05;3.77;;;2.13;;
5841;SDS011;2947;52.276;9.946;2024-01-15T10:02:32;6.33;;;1.77;;
5841;SDS011;2947;52.276;9.946;2024-01-15T10:04:59;7.53;;;2.10;;
5841;SDS011;2947;52.276;9.946;2024-01-15T10:07:25;8.93;;;2.53;;
5841;SDS011;2947;52.276;9.946;2024-01-15T10:09:51;4.40;;;1.93;;
5841;SDS011;2947;52.276;9.946;2024-01-15T10:12:19;18.13;;;2.80;;
5841;SDS011;2947;52.276;9.946;2024-01-15T10:14:47;5.97;;;1.80;;
5841;SDS011;2947;52.276;9.946;2024-01-15T10:17:14;6.93;;;2.83;;
5841;SDS011;2947;52.276;9.946;2024-01-15T10:19:40;8.23;;;2.40;;
5841;SDS011;2947;52.276;9.946;2024-01-15T10:22:06;4.73;;;1.30;;
5841;SDS011;2947;52.276;9.946;2024-01-15T10:24:37;3.13;;;1.10;;
5841;SDS011;2947;52.276;9.946;2024-01-15T10:27:09;6.60;;;1.23;;
5841;SDS011;2947;52.276;9.946;2024-01-15T10:29:36;1.63;;;0.70;;
5841;SDS011;2947;52.276;9.946;2024-01-15T10:32:02;2.50;;;1.10;;
5841;SDS011;2947;52.276;9.946;2024-01-15T10:34:32;2.00;;;0.90;;
5841;SDS011;2947;52.276;9.946;2024-01-15T10:36:58;1.60;;;0.70;;
5841;SDS011;2947;52.276;9.946;2024-01-15T10:39:24;2.67;;;1.27;;
5841;SDS011;2947;52.276;9.946;2024-01-15T10:41:50;5.80;;;1.20;;
5841;SDS011;2947;52.276;9.946;2024-01-15T10:44:17;6.53;;;1.40;;
5841;SDS011;2947;52.276;9.946;2024-01-15T10:46:43;5.80;;;1.57;;
5841;SDS011;2947;52.276;9.946;2024-01-15T10:49:11;6.23;;;1.30;;
5841;SDS011;2947;52.276;9.946;2024-01-15T10:51:38;3.73;;;1.60;;
5841;SDS011;2947;52.276;9.946;2024-01-15T10:54:07;4.10;;;1.47;;
5841;SDS011;2947;52.276;9.946;2024-01-15T10:56:36;6.63;;;1.50;;
5841;SDS011;2947;52.276;9.946;2024-01-15T10:59:03;3.40;;;1.40;;
5841;SDS011;2947;52.276;9.946;2024-01-15T11:01:30;7.63;;;1.47;;
5841;SDS011;2947;52.276;9.946;2024-01-15T11:03:56;7.63;;;1.00;;
5841;SDS011;2947;52.276;9.946;2024-01-15T11:06:23;5.80;;;2.00;;
5841;SDS011;2947;52.276;9.946;2024-01-15T11:08:50;10.30;;;1.87;;
5841;SDS011;2947;52.276;9.946;2024-01-15T11:11:17;3.07;;;1.03;;
5841;SDS011;2947;52.276;9.946;2024-01-15T11:13:46;6.00;;;1.20;;
5841;SDS011;2947;52.276;9.946;2024-01-15T11:16:15;6.03;;;1.87;;
5841;SDS011;2947;52.276;9.946;2024-01-15T11:18:41;5.50;;;1.40;;
5841;SDS011;2947;52.276;9.946;2024-01-15T11:21:23;5.33;;;1.47;;
5841;SDS011;2947;52.276;9.946;2024-01-15T11:23:55;4.70;;;1.10;;
5841;SDS011;2947;52.276;9.946;2024-01-15T11:29:07;3.10;;;1.13;;
5841;SDS011;2947;52.276;9.946;2024-01-15T11:32:14;5.03;;;1.10;;
5841;SDS011;2947;52.276;9.946;2024-01-15T11:37:16;6.40;;;1.70;;
5841;SDS011;2947;52.276;9.946;2024-01-15T11:39:42;6.07;;;1.03;;
5841;SDS011;2947;52.276;9.946;2024-01-15T11:42:09;8.33;;;1.40;;
5841;SDS011;2947;52.276;9.946;2024-01-15T11:44:39;7.47;;;1.00;;
5841;SDS011;2947;52.276;9.946;2024-01-15T11:47:06;6.80;;;1.33;;
5841;SDS011;2947;52.276;9.946;2024-01-15T11:52:36;3.47;;;1.33;;
5841;SDS011;2947;52.276;9.946;2024-01-15T11:57:57;6.97;;;1.30;;
5841;SDS011;2947;52.276;9.946;2024-01-15T12:00:25;5.30;;;1.70;;
5841;SDS011;2947;52.276;9.946;2024-01-15T12:02:51;3.37;;;1.33;;
5841;SDS011;2947;52.276;9.946;2024-01-15T12:05:17;6.83;;;1.97;;
5841;SDS011;2947;52.276;9.946;2024-01-15T12:07:46;7.00;;;2.13;;
5841;SDS011;2947;52.276;9.946;2024-01-15T12:10:15;6.90;;;1.50;;
5841;SDS011;2947;52.276;9.946;2024-01-15T12:12:59;8.57;;;1.60;;
5841;SDS011;2947;52.276;9.946;2024-01-15T12:15:29;5.17;;;1.63;;
5841;SDS011;2947;52.276;9.946;2024-01-15T12:17:56;3.53;;;1.30;;
5841;SDS011;2947;52.276;9.946;2024-01-15T12:20:23;8.97;;;2.60;;
5841;SDS011;2947;52.276;9.946;2024-01-15T12:22:52;7.30;;;1.80;;
5841;SDS011;2947;52.276;9.946;2024-01-15T12:25:20;6.13;;;1.20;;
5841;SDS011;2947;52.276;9.946;2024-01-15T12:27:46;4.97;;;1.70;;
5841;SDS011;2947;52.276;9.946;2024-01-15T12:30:13;6.87;;;1.53;;
5841;SDS011;2947;52.276;9.946;2024-01-15T12:32:40;8.70;;;2.33;;
5841;SDS011;2947;52.276;9.946;2024-01-15T12:35:07;6.50;;;1.40;;
5841;SDS011;2947;52.276;9.946;2024-01-15T12:37:38;9.60;;;3.13;;
5841;SDS011;2947;52.276;9.946;2024-01-15T12:40:05;7.60;;;1.60;;
5841;SDS011;2947;52.276;9.946;2024-01-15T12:42:33;8.10;;;1.40;;
5841;SDS011;2947;52.276;9.946;2024-01-15T12:45:07;11.77;;;1.70;;
5841;SDS011;2947;52.276;9.946;2024-01-15T12:47:35;4.00;;;1.07;;
5841;SDS011;2947;52.276;9.946;2024-01-15T12:50:02;4.97;;;1.10;;
5841;SDS011;2947;52.276;9.946;2024-01-15T12:52:32;7.30;;;1.60;;
5841;SDS011;2947;52.276;9.946;2024-01-15T12:54:58;7.67;;;1.57;;
5841;SDS011;2947;52.276;9.946;2024-01-15T12:57:23;5.23;;;1.23;;
5841;SDS011;2947;52.276;9.946;2024-01-15T12:59:49;7.00;;;1.20;;
5841;SDS011;2947;52.276;9.946;2024-01-15T13:02:15;9.27;;;2.07;;
5841;SDS011;2947;52.276;9.946;2024-01-15T13:04:42;3.17;;;1.17;;
5841;SDS011;2947;52.276;9.946;2024-01-15T13:07:08;5.30;;;1.17;;
5841;SDS011;2947;52.276;9.946;2024-01-15T13:09:34;8.00;;;1.33;;
5841;SDS011;2947;52.276;9.946;2024-01-15T13:12:01;11.83;;;1.60;;
5841;SDS011;2947;52.276;9.946;2024-01-15T13:14:30;8.80;;;1.83;;
5841;SDS011;2947;52.276;9.946;2024-01-15T13:17:00;3.43;;;1.10;;
5841;SDS011;2947;52.276;9.946;2024-01-15T13:19:25;3.23;;;1.20;;
5841;SDS011;2947;52.276;9.946;2024-01-15T13:21:52;6.33;;;1.93;;
5841;SDS011;2947;52.276;9.946;2024-01-15T13:24:19;6.80;;;1.23;;
5841;SDS011;2947;52.276;9.946;2024-01-15T13:26:46;4.87;;;1.63;;
5841;SDS011;2947;52.276;9.946;2024-01-15T13:29:12;4.60;;;1.23;;
5841;SDS011;2947;52.276;9.946;2024-01-15T13:31:38;8.03;;;1.60;;
5841;SDS011;2947;52.276;9.946;2024-01-15T13:34:04;10.03;;;2.20;;
5841;SDS011;2947;52.276;9.946;2024-01-15T13:36:30;8.47;;;2.30;;
5841;SDS011;2947;52.276;9.946;2024-01-15T13:38:55;4.53;;;1.20;;
5841;SDS011;2947;52.276;9.946;2024-01-15T13:41:22;3.33;;;0.93;;
5841;SDS011;2947;52.276;9.946;2024-01-15T13:43:52;5.47;;;1.20;;
5841;SDS011;2947;52.276;9.946;2024-01-15T13:46:20;3.87;;;1.00;;
5841;SDS011;2947;52.276;9.946;2024-01-15T13:48:54;5.43;;;1.30;;
5841;SDS011;2947;52.276;9.946;2024-01-15T13:51:21;4.20;;;1.30;;
5841;SDS011;2947;52.276;9.946;2024-01-15T13:53:47;3.20;;;1.50;;
5841;SDS011;2947;52.276;9.946;2024-01-15T13:56:13;4.47;;;1.20;;
5841;SDS011;2947;52.276;9.946;2024-01-15T13:58:40;6.13;;;1.20;;
5841;SDS011;2947;52.276;9.946;2024-01-15T14:01:06;3.53;;;1.60;;
5841;SDS011;2947;52.276;9.946;2024-01-15T14:03:32;6.57;;;1.20;;
5841;SDS011;2947;52.276;9.946;2024-01-15T14:05:58;11.67;;;1.50;;
5841;SDS011;2947;52.276;9.946;2024-01-15T14:08:24;10.20;;;2.33;;
5841;SDS011;2947;52.276;9.946;2024-01-15T14:10:50;3.93;;;1.27;;
5841;SDS011;2947;52.276;9.946;2024-01-15T14:13:17;7.60;;;1.83;;
5841;SDS011;2947;52.276;9.946;2024-01-15T14:15:42;5.20;;;1.40;;
5841;SDS011;2947;52.276;9.946;2024-01-15T14:18:08;8.77;;;1.40;;
5841;SDS011;2947;52.276;9.946;2024-01-15T14:20:34;4.30;;;1.33;;
5841;SDS011;2947;52.276;9.946;2024-01-15T14:23:00;4.93;;;1.13;;
5841;SDS011;2947;52.276;9.946;2024-01-15T14:25:25;3.70;;;1.10;;
5841;SDS011;2947;52.276;9.946;2024-01-15T14:27:51;6.90;;;1.40;;
5841;SDS011;2947;52.276;9.946;2024-01-15T14:30:17;8.80;;;1.40;;
5841;SDS011;2947;52.276;9.946;2024-01-15T14:32:47;10.50;;;1.73;;
5841;SDS011;2947;52.276;9.946;2024-01-15T14:35:12;4.40;;;1.60;;
5841;SDS011;2947;52.276;9.946;2024-01-15T14:37:38;5.67;;;1.43;;
5841;SDS011;2947;52.276;9.946;2024-01-15T14:40:08;8.20;;;1.60;;
5841;SDS011;2947;52.276;9.946;2024-01-15T14:42:35;2.60;;;1.20;;
5841;SDS011;2947;52.276;9.946;2024-01-15T14:45:02;9.10;;;2.57;;
5841;SDS011;2947;52.276;9.946;2024-01-15T14:47:33;10.43;;;1.50;;
5841;SDS011;2947;52.276;9.946;2024-01-15T14:50:00;11.43;;;1.90;;
5841;SDS011;2947;52.276;9.946;2024-01-15T14:52:26;3.07;;;1.30;;
5841;SDS011;2947;52.276;9.946;2024-01-15T14:54:52;5.70;;;1.77;;
5841;SDS011;2947;52.276;9.946;2024-01-15T14:57:18;4.80;;;1.40;;
5841;SDS011;2947;52.276;9.946;2024-01-15T14:59:44;6.50;;;1.33;;
5841;SDS011;2947;52.276;9.946;2024-01-15T15:02:11;2.93;;;1.60;;
5841;SDS011;2947;52.276;9.946;2024-01-15T15:04:37;5.03;;;2.03;;
5841;SDS011;2947;52.276;9.946;2024-01-15T15:07:04;8.37;;;3.73;;
5841;SDS011;2947;52.276;9.946;2024-01-15T15:09:31;22.07;;;8.90;;
5841;SDS011;2947;52.276;9.946;2024-01-15T15:11:57;12.67;;;5.17;;
5841;SDS011;2947;52.276;9.946;2024-01-15T15:14:22;16.60;;;6.23;;
5841;SDS011;2947;52.276;9.946;2024-01-15T15:16:48;14.83;;;5.97;;
5841;SDS011;2947;52.276;9.946;2024-01-15T15:19:14;24.70;;;10.63;;